Latest Weather Observations for Mangalore

IDV60801

Issued at 12:31 pm EDT Saturday 7 March 2015 (issued every 30 minutes, with the page automatically refreshed every 10 minutes)

About weather observations | Map of weather stations | Latest weather observations for VIC | Other Formats
Station Details ID: 088109 Name: MANGALORE AIRPORT Lat: -36.89 Lon: 145.19 Height: 140.8 m
Data from the previous 72 hours. | See also: Recent months at Mangalore
Date/Time
EDT
Temp
°C
App
Temp
°C
Dew
Point
Rel
Hum
%
Delta-T
°C
Wind Press
QNH
hPa
Press
MSL
hPa
Rain
since 9 am
mm
Dir
 
Spd
km/h
Gust
km/h
Spd
kts
Gust
kts
07/12:30pm 19.8 17.9 10.5 55 5.1 W 11 19 6 10 1013.0 1012.6 0.0
07/12:00pm 19.3 17.6 10.0 55 5.0 SW 9 17 5 9 1013.2 1012.8 0.0
07/11:30am 18.4 16.7 9.7 57 4.6 WSW 9 19 5 10 1013.6 1013.2 0.0
07/11:00am 18.1 16.6 10.7 62 4.0 SW 9 13 5 7 1013.5 1013.1 0.0
07/10:30am 17.8 16.3 10.4 62 4.0 WSW 9 17 5 9 1013.6 1013.2 0.0
07/10:00am 17.2 15.7 10.6 65 3.5 WSW 9 13 5 7 1013.6 1013.2 0.0
07/09:30am 16.2 14.8 10.9 71 2.8 SSW 9 11 5 6 1013.4 1013.0 0.0
07/09:00am 15.7 15.0 11.9 78 2.1 SSW 7 9 4 5 1013.2 1012.8 0.0
07/08:30am 15.2 15.0 13.1 87 1.2 SSW 6 7 3 4 1013.2 1012.8 0.0
07/08:00am 14.4 14.1 12.8 90 0.9 SSW 6 7 3 4 1012.9 1012.5 0.0
07/07:30am 13.7 14.5 12.4 92 0.7 CALM 0 0 0 0 1012.5 1012.1 0.0
07/07:00am 13.4 13.0 12.3 93 0.6 SSW 6 6 3 3 1012.4 1012.0 0.0
07/06:30am 13.3 12.8 12.2 93 0.6 SSW 6 9 3 5 1012.1 1011.7 0.0
07/06:00am 12.2 12.6 11.1 93 0.6 CALM 0 2 0 1 1012.1 1011.7 0.0
07/05:30am 12.1 11.2 10.5 90 0.8 SSW 6 7 3 4 1011.8 1011.4 0.0
07/05:00am 13.0 12.1 11.4 90 0.9 SSW 7 9 4 5 1011.6 1011.2 0.0
07/04:30am 13.2 12.4 11.6 90 0.9 SSW 7 9 4 5 1011.6 1011.2 0.0
07/04:00am 13.2 12.6 11.6 90 0.9 SSW 6 9 3 5 1011.7 1011.3 0.0
07/03:30am 13.5 12.4 11.9 90 0.9 SSW 9 11 5 6 1011.8 1011.4 0.0
07/03:00am 13.8 12.9 12.5 92 0.7 SSW 9 11 5 6 1012.0 1011.6 0.0
07/02:30am 14.2 13.3 12.6 90 0.9 SSW 9 13 5 7 1012.4 1012.0 0.0
07/02:00am 14.5 13.4 13.0 91 0.8 S 11 13 6 7 1012.5 1012.1 0.0
07/01:30am 14.8 14.0 12.8 88 1.1 SSW 9 11 5 6 1012.7 1012.3 0.0
07/01:00am 15.5 14.4 13.0 85 1.4 SSW 11 13 6 7 1012.8 1012.4 0.0
07/12:30am 15.7 15.4 13.4 86 1.3 SSW 7 11 4 6 1012.9 1012.5 0.0
07/12:00am 15.3 14.2 13.1 87 1.2 WSW 11 15 6 8 1012.8 1012.4 0.0
 
Date/Time
EDT
Temp
°C
App
Temp
°C
Dew
Point
Rel
Hum
%
Delta-T
°C
Wind Press
QNH
hPa
Press
MSL
hPa
Rain
since 9 am
mm
Dir
 
Spd
km/h
Gust
km/h
Spd
kts
Gust
kts
06/11:30pm 15.3 14.1 12.8 85 1.4 SW 11 15 6 8 1012.7 1012.3 0.0
06/11:00pm 15.8 14.6 12.7 82 1.7 SW 11 17 6 9 1012.7 1012.3 0.0
06/10:30pm 16.4 14.4 12.6 78 2.1 SW 15 20 8 11 1012.7 1012.3 0.0
06/10:00pm 16.9 15.3 12.8 77 2.3 SW 13 20 7 11 1012.7 1012.3 0.0
06/09:30pm 17.1 15.4 12.6 75 2.5 SSW 13 17 7 9 1012.5 1012.1 0.0
06/09:00pm 18.2 15.3 12.4 69 3.2 SSW 19 24 10 13 1012.1 1011.7 0.0
06/08:30pm 18.7 16.5 12.2 66 3.6 SSW 15 22 8 12 1011.8 1011.4 0.0
06/08:00pm 19.1 16.1 12.1 64 3.9 SSW 19 28 10 15 1011.5 1011.1 0.0
06/07:30pm 19.8 17.1 11.8 60 4.5 SW 17 22 9 12 1011.2 1010.9 0.0
06/07:00pm 20.3 17.6 11.8 58 4.8 SSW 17 22 9 12 1011.0 1010.6 0.0
06/06:30pm 21.0 17.9 11.6 55 5.3 SSW 19 26 10 14 1010.6 1010.2 0.0
06/06:00pm 21.9 18.6 11.0 50 6.1 SW 19 28 10 15 1010.6 1010.2 0.0
06/05:30pm 21.4 17.3 11.4 53 5.6 SSW 24 37 13 20 1010.4 1010.0 0.0
06/05:00pm 21.5 18.3 11.8 54 5.5 SSW 20 35 11 19 1010.4 1010.0 0.0
06/04:30pm 21.7 17.9 11.1 51 5.9 SSW 22 30 12 16 1010.2 1009.8 0.0
06/04:00pm 22.1 18.1 11.8 52 5.8 SSW 24 32 13 17 1010.3 1009.9 0.0
06/03:30pm 22.6 19.4 11.4 49 6.3 SSW 19 24 10 13 1010.5 1010.1 0.0
06/03:00pm 20.8 18.0 11.4 55 5.2 SSW 17 30 9 16 1011.0 1010.6 0.0
06/02:30pm 21.0 17.5 10.2 50 5.9 SSW 19 26 10 14 1011.2 1010.9 0.0
06/02:00pm 20.6 16.5 10.1 51 5.7 SSW 22 32 12 17 1011.2 1010.9 0.0
06/01:30pm 20.6 17.5 10.4 52 5.6 SSW 17 24 9 13 1011.4 1011.0 0.0
06/01:00pm 19.4 16.9 9.6 53 5.2 S 13 20 7 11 1011.6 1011.2 0.0
06/12:30pm 19.1 15.9 9.9 55 4.9 WSW 17 20 9 11 1011.9 1011.5 0.0
06/12:00pm 18.8 14.9 9.6 55 4.9 SW 20 32 11 17 1012.2 1011.8 0.0
06/11:30am 19.1 14.8 9.3 53 5.2 WSW 22 35 12 19 1012.3 1011.9 0.0
06/11:00am 17.9 14.2 9.5 58 4.4 WSW 19 26 10 14 1012.4 1012.0 0.0
06/10:30am 17.3 12.9 9.0 58 4.3 SW 22 30 12 16 1012.4 1012.0 0.0
06/10:00am 16.5 11.7 8.7 60 4.0 WSW 24 33 13 18 1012.2 1011.8 0.0
06/09:30am 15.5 11.6 7.3 58 4.1 W 17 20 9 11 1012.2 1011.8 0.0
06/09:00am 14.8 11.0 7.4 61 3.7 W 17 22 9 12 1012.2 1011.8 0.0
06/08:30am 14.6 10.3 7.2 61 3.7 W 19 24 10 13 1012.1 1011.7 0.0
06/08:00am 13.9 10.0 7.0 63 3.4 W 17 22 9 12 1011.8 1011.4 0.0
06/07:30am 13.2 9.1 6.3 63 3.3 W 17 20 9 11 1011.8 1011.4 0.0
06/07:00am 13.2 9.2 6.5 64 3.2 W 17 22 9 12 1011.9 1011.5 0.0
06/06:30am 12.3 8.5 5.9 65 3.0 WNW 15 19 8 10 1011.9 1011.5 0.0
06/06:00am 12.8 9.8 5.9 63 3.3 WNW 11 17 6 9 1012.3 1011.9 0.0
06/05:30am 12.2 9.5 5.6 64 3.1 WSW 9 13 5 7 1012.5 1012.1 0.0
06/05:00am 12.2 9.5 5.4 63 3.2 WSW 9 11 5 6 1012.7 1012.3 0.0
06/04:30am 12.0 9.7 5.6 65 3.0 WSW 7 9 4 5 1013.4 1013.0 0.0
06/04:00am 11.7 9.3 5.1 64 3.0 WSW 7 9 4 5 1013.6 1013.2 0.0
06/03:30am 12.1 8.9 5.0 62 3.3 WSW 11 15 6 8 1013.9 1013.5 0.0
06/03:00am 12.4 8.0 4.9 60 3.5 WSW 17 20 9 11 1014.2 1013.8 0.0
06/02:30am 12.4 8.0 4.6 59 3.6 WSW 17 22 9 12 1014.1 1013.7 0.0
06/02:00am 11.1 8.1 4.1 62 3.1 SSW 9 9 5 5 1014.6 1014.2 0.0
06/01:30am 11.7 9.3 4.2 60 3.4 SSW 6 7 3 4 1014.8 1014.4 0.0
06/01:00am 10.6 8.0 4.1 64 2.9 SSW 7 9 4 5 1015.2 1014.8 0.0
06/12:30am 12.8 10.2 4.0 55 4.0 SSW 7 7 4 4 1015.2 1014.8 0.0
06/12:00am 12.9 10.2 3.8 54 4.1 SSW 7 9 4 5 1015.1 1014.7 0.0
 
Date/Time
EDT
Temp
°C
App
Temp
°C
Dew
Point
Rel
Hum
%
Delta-T
°C
Wind Press
QNH
hPa
Press
MSL
hPa
Rain
since 9 am
mm
Dir
 
Spd
km/h
Gust
km/h
Spd
kts
Gust
kts
05/11:30pm 13.4 10.0 3.8 52 4.4 S 11 15 6 8 1015.3 1014.9 0.0
05/11:00pm 14.1 10.2 3.6 49 4.8 SSW 13 20 7 11 1015.3 1014.9 0.0
05/10:30pm 14.4 10.8 3.2 47 5.1 S 11 13 6 7 1015.4 1015.0 0.0
05/10:00pm 14.9 11.4 3.4 46 5.3 SSW 11 15 6 8 1015.4 1015.0 0.0
05/09:30pm 15.5 11.7 3.9 46 5.4 SSW 13 19 7 10 1015.4 1015.0 0.0
05/09:00pm 16.0 11.7 3.4 43 5.8 SSW 15 19 8 10 1015.2 1014.8 0.0
05/08:30pm 16.4 11.6 2.8 40 6.2 SSW 17 22 9 12 1015.0 1014.6 0.0
05/08:00pm 17.0 11.5 1.8 36 6.8 SSW 20 32 11 17 1015.0 1014.6 0.0
05/07:30pm 17.7 12.6 0.8 32 7.5 SSW 17 24 9 13 1014.9 1014.5 0.0
05/07:00pm 18.7 12.6 0.3 29 8.1 SSW 22 33 12 18 1014.7 1014.3 0.0
05/06:30pm 19.4 12.5 0.4 28 8.5 SSW 26 41 14 22 1014.6 1014.2 0.0
05/06:00pm 19.9 12.7 0.9 28 8.6 SSW 28 43 15 23 1014.4 1014.0 0.0
05/05:30pm 20.3 13.1 0.7 27 8.9 SSW 28 41 15 22 1014.5 1014.1 0.0
05/05:00pm 20.5 14.6 1.9 29 8.6 S 22 39 12 21 1014.6 1014.2 0.0
05/04:30pm 20.6 14.7 2.0 29 8.7 SSW 22 33 12 18 1014.9 1014.5 0.0
05/04:00pm 20.3 13.6 1.7 29 8.6 SSW 26 39 14 21 1015.4 1015.0 0.0
05/03:30pm 19.6 12.5 1.6 30 8.2 S 28 41 15 22 1015.9 1015.5 0.0
05/03:00pm 19.6 12.5 1.6 30 8.2 SSW 28 41 15 22 1016.1 1015.7 0.0
05/02:43pm 20.0 13.0 1.9 30 8.4 S 28 46 15 25 1016.2 1015.8 0.0
05/02:30pm 19.1 12.1 2.0 32 7.9 SSW 28 41 15 22 1016.3 1015.9 0.0
05/02:02pm 19.2 11.7 1.2 30 8.1 S 30 48 16 26 1016.6 1016.2 0.0
05/02:00pm 19.3 12.0 2.2 32 7.9 SSW 30 43 16 23 1016.6 1016.2 0.0
05/01:30pm 18.7 10.8 0.8 30 8.0 SSW 32 52 17 28 1016.7 1016.3 0.0
05/01:17pm 18.4 10.7 0.1 29 8.0 SSW 30 52 16 28 1016.7 1016.3 0.0
05/01:00pm 19.3 11.7 0.8 29 8.3 S 30 44 16 24 1016.9 1016.5 0.0
05/12:30pm 18.0 10.1 2.3 35 7.2 S 33 46 18 25 1017.1 1016.7 0.0
05/12:06pm 17.3 9.3 1.7 35 7.0 SSW 33 54 18 29 1017.4 1017.1 0.0
05/12:00pm 17.4 9.4 1.8 35 7.0 SSW 33 48 18 26 1017.4 1017.1 0.0
05/11:30am 17.5 9.2 1.9 35 7.1 S 35 59 19 32 1017.2 1016.8 0.0
05/11:22am 16.4 7.1 0.9 35 6.8 S 39 59 21 32 1017.4 1017.1 0.0
05/11:00am 16.6 7.9 1.9 37 6.6 SSW 37 54 20 29 1017.3 1017.0 0.0
05/10:30am 15.6 8.3 2.4 41 5.9 SSW 30 48 16 26 1017.1 1016.7 0.0
05/10:00am 14.1 6.2 2.4 45 5.2 SSW 33 50 18 27 1016.7 1016.3 0.0
05/09:30am 13.9 7.0 2.8 47 5.0 SSW 28 46 15 25 1016.5 1016.1 0.0
05/09:00am 12.9 6.4 2.7 50 4.5 SSW 26 37 14 20 1016.5 1016.1 0.0
05/08:30am 12.1 5.6 2.8 53 4.1 SSW 26 35 14 19 1016.0 1015.6 0.0
05/08:00am 11.5 6.2 2.8 55 3.8 SW 20 33 11 18 1015.4 1015.0 0.0
05/07:30am 11.1 6.0 3.2 58 3.5 SSW 19 26 10 14 1014.9 1014.5 0.0
05/07:00am 11.5 5.5 3.5 58 3.6 SSW 24 33 13 18 1015.0 1014.6 0.0
05/06:30am 12.1 5.3 3.1 54 4.0 SSW 28 46 15 25 1014.5 1014.1 0.0
05/06:01am 12.6 5.2 4.1 56 3.9 SSW 32 50 17 27 1013.9 1013.5 0.0
05/06:00am 12.5 5.1 4.0 56 3.9 SSW 32 46 17 25 1013.8 1013.4 0.0
05/05:30am 13.2 5.4 5.1 58 3.8 SSW 35 57 19 31 1013.2 1012.8 0.0
05/05:00am 14.1 5.7 7.2 63 3.4 SSW 41 69 22 37 1012.5 1012.1 0.0
05/04:54am 14.5 7.8 7.3 62 3.6 SSW 32 69 17 37 1012.2 1011.8 0.0
05/04:52am 14.9 9.4 9.3 69 2.9 SSW 28 48 15 26 1012.1 1011.7 0.0
05/04:30am 15.3 11.1 9.9 70 2.8 SW 22 41 12 22 1011.2 1010.9 0.0
05/04:00am 15.7 12.1 10.5 71 2.8 WSW 20 30 11 16 1010.9 1010.5 0.0
05/03:37am 16.7 12.4 9.4 62 3.8 W 22 57 12 31 1010.8 1010.4 0.0
05/03:30am 17.0 13.5 8.7 58 4.3 W 17 20 9 11 1010.4 1010.0 0.0
05/03:00am 16.3 14.1 9.5 64 3.6 WSW 11 13 6 7 1010.4 1010.0 0.0
05/02:30am 15.5 13.4 8.3 62 3.7 WSW 9 11 5 6 1010.5 1010.1 0.0
05/02:00am 16.3 13.5 8.5 60 4.0 SW 13 20 7 11 1010.7 1010.3 0.0
05/01:30am 17.3 14.9 8.7 57 4.5 SW 11 15 6 8 1010.8 1010.4 0.0
05/01:00am 18.0 14.1 8.6 54 4.9 W 19 26 10 14 1010.4 1010.0 0.0
05/12:30am 18.4 15.2 8.4 52 5.2 W 15 20 8 11 1010.3 1009.9 0.0
05/12:00am 19.0 15.4 8.4 50 5.5 W 17 19 9 10 1010.4 1010.0 0.0
 
Date/Time
EDT
Temp
°C
App
Temp
°C
Dew
Point
Rel
Hum
%
Delta-T
°C
Wind Press
QNH
hPa
Press
MSL
hPa
Rain
since 9 am
mm
Dir
 
Spd
km/h
Gust
km/h
Spd
kts
Gust
kts
04/11:30pm 19.6 15.5 8.0 47 6.0 W 19 22 10 12 1010.4 1010.0 0.0
04/11:00pm 20.3 15.6 7.7 44 6.5 W 22 30 12 16 1010.3 1009.9 0.0
04/10:30pm 20.5 16.1 7.2 42 6.8 W 20 32 11 17 1010.5 1010.1 0.0
04/10:00pm 21.0 16.6 6.5 39 7.4 W 19 24 10 13 1010.3 1009.9 0.0
04/09:30pm 21.5 17.4 6.2 37 7.8 W 17 22 9 12 1009.9 1009.5 0.0
04/09:00pm 22.1 17.8 5.1 33 8.5 WNW 17 28 9 15 1009.7 1009.3 0.0
04/08:30pm 21.9 17.7 4.0 31 8.7 WNW 15 20 8 11 1009.7 1009.3 0.0
04/08:00pm 22.3 18.8 3.4 29 9.2 W 11 13 6 7 1009.7 1009.3 0.0
04/07:30pm 24.5 21.4 3.8 26 10.2 W 9 13 5 7 1009.5 1009.1 0.0
04/07:00pm 25.8 21.4 2.5 22 11.4 W 15 20 8 11 1009.6 1009.2 0.0
04/06:30pm 26.3 21.0 2.9 22 11.5 WNW 20 28 11 15 1009.7 1009.3 0.0
04/06:00pm 26.5 21.2 3.1 22 11.6 WNW 20 26 11 14 1010.0 1009.6 0.0
04/05:30pm 26.5 20.8 3.1 22 11.6 W 22 28 12 15 1010.1 1009.7 0.0
04/05:00pm 27.0 22.0 3.5 22 11.8 W 19 24 10 13 1010.3 1009.9 0.0
04/04:30pm 26.6 22.3 3.2 22 11.6 W 15 24 8 13 1010.6 1010.2 0.0
04/04:00pm 26.4 21.3 3.0 22 11.6 W 19 28 10 15 1011.0 1010.6 0.0
04/03:30pm 26.2 20.8 1.5 20 11.9 W 19 30 10 16 1011.5 1011.1 0.0
04/03:00pm 25.8 21.9 5.4 27 10.5 SW 15 24 8 13 1012.0 1011.6 0.0
04/02:30pm 24.6 21.6 5.9 30 9.6 WNW 11 17 6 9 1012.4 1012.0 0.0
04/02:00pm 24.1 20.3 5.9 31 9.3 W 15 20 8 11 1013.0 1012.6 0.0
04/01:30pm 23.6 20.8 6.8 34 8.7 WSW 11 22 6 12 1013.6 1013.2 0.0
04/01:00pm 22.3 19.6 7.3 38 7.8 SW 11 19 6 10 1014.1 1013.7 0.0

Other Formats:

Comma delimited format used in spreadsheet applications
http://www.bom.gov.au/fwo/IDV60801/IDV60801.94874.axf

JavaScript Object Notation format (JSON) in row-major order
http://www.bom.gov.au/fwo/IDV60801/IDV60801.94874.json